Time;durP1;ratioP1;P1;durP2;ratioP2;P2;SDS_P1;SDS_P2;PMS_P1;PMS_P2;Temp;Humidity;BMP_temperature;BMP_pressure;BME280_temperature;BME280_humidity;BME280_pressure;Samples;Min_cycle;Max_cycle;Signal;HPM_P1;HPM_P2
2023/06/03 00:01:03;;;;;;;11.38;3.40;;;;;;;;;;5051331;28;20052;-64
2023/06/03 00:03:34;;;;;;;16.10;4.28;;;;;;;;;;5051294;28;20425;-64
2023/06/03 00:06:00;;;;;;;11.93;4.22;;;;;;;;;;5044105;28;20421;-64
2023/06/03 00:08:27;;;;;;;13.30;3.80;;;;;;;;;;5042795;28;20057;-64
2023/06/03 00:10:53;;;;;;;12.52;3.83;;;;;;;;;;5051478;28;20056;-64
2023/06/03 00:13:20;;;;;;;11.68;4.10;;;;;;;;;;5051179;28;20546;-64
2023/06/03 00:15:46;;;;;;;9.25;3.60;;;;;;;;;;5051091;28;20443;-64
2023/06/03 00:18:13;;;;;;;10.40;3.92;;;;;;;;;;5051438;28;20063;-64
2023/06/03 00:20:40;;;;;;;14.48;4.60;;;;;;;;;;5050981;28;20049;-64
2023/06/03 00:23:06;;;;;;;11.60;4.32;;;;;;;;;;5051316;28;20048;-64
2023/06/03 00:25:34;;;;;;;13.95;4.20;;;;;;;;;;5050716;28;20544;-64
2023/06/03 00:28:01;;;;;;;14.43;4.50;;;;;;;;;;5050948;28;20053;-64
2023/06/03 00:30:28;;;;;;;14.07;4.53;;;;;;;;;;5050955;28;20079;-64
2023/06/03 00:32:55;;;;;;;10.85;4.18;;;;;;;;;;5050966;28;20136;-64
2023/06/03 00:35:22;;;;;;;12.07;4.53;;;;;;;;;;5050831;28;20135;-64
2023/06/03 00:37:48;;;;;;;12.02;4.10;;;;;;;;;;5050909;28;20064;-64
2023/06/03 00:40:15;;;;;;;13.93;4.15;;;;;;;;;;5050858;28;20048;-64
2023/06/03 00:42:41;;;;;;;10.15;4.00;;;;;;;;;;5051037;28;20057;-64
2023/06/03 00:45:08;;;;;;;14.23;4.97;;;;;;;;;;5050767;28;20516;-65
2023/06/03 00:47:34;;;;;;;14.75;4.70;;;;;;;;;;5051129;28;20415;-64
2023/06/03 00:50:02;;;;;;;16.55;4.47;;;;;;;;;;5051037;28;20044;-64
2023/06/03 00:52:28;;;;;;;13.23;4.47;;;;;;;;;;5050791;28;20564;-64
2023/06/03 00:54:55;;;;;;;14.05;4.22;;;;;;;;;;5050938;28;20119;-64
2023/06/03 00:57:22;;;;;;;14.90;5.30;;;;;;;;;;5053441;28;20483;-64
2023/06/03 00:59:49;;;;;;;10.68;4.25;;;;;;;;;;5054422;28;20063;-64
2023/06/03 01:02:16;;;;;;;10.38;4.53;;;;;;;;;;5054274;28;20069;-64
2023/06/03 01:04:45;;;;;;;11.77;4.93;;;;;;;;;;5054562;28;20548;-64
2023/06/03 01:07:22;;;;;;;13.77;4.22;;;;;;;;;;5054191;28;20080;-64
2023/06/03 01:10:06;;;;;;;12.13;5.05;;;;;;;;;;5054168;28;20052;-64
2023/06/03 01:12:36;;;;;;;15.63;5.00;;;;;;;;;;5054312;28;20099;-64
2023/06/03 01:15:06;;;;;;;14.40;4.43;;;;;;;;;;5054006;28;20131;-64
2023/06/03 01:17:36;;;;;;;16.23;4.72;;;;;;;;;;5049626;28;20092;-64
2023/06/03 01:20:04;;;;;;;9.82;4.30;;;;;;;;;;5053402;28;20095;-65
2023/06/03 01:22:35;;;;;;;;;;;;;;;;;;5052854;28;20049;-64
2023/06/03 01:25:03;;;;;;;13.05;4.93;;;;;;;;;;5053613;28;20399;-64
2023/06/03 01:27:29;;;;;;;14.83;4.70;;;;;;;;;;5053654;28;20496;-64
2023/06/03 01:29:56;;;;;;;13.52;4.90;;;;;;;;;;5053808;28;20095;-64
2023/06/03 01:32:22;;;;;;;11.20;4.75;;;;;;;;;;5053815;28;20053;-64
2023/06/03 01:34:49;;;;;;;14.73;4.53;;;;;;;;;;5053749;28;20136;-64
2023/06/03 01:37:16;;;;;;;14.07;4.90;;;;;;;;;;5053784;28;20052;-64
2023/06/03 01:39:42;;;;;;;14.48;5.32;;;;;;;;;;5053639;28;20128;-64
2023/06/03 01:42:10;;;;;;;12.85;5.13;;;;;;;;;;5053750;28;20060;-64
2023/06/03 01:44:37;;;;;;;13.75;5.15;;;;;;;;;;5053806;28;20087;-64
2023/06/03 01:47:04;;;;;;;18.98;5.55;;;;;;;;;;5053453;28;20041;-64
2023/06/03 01:49:31;;;;;;;12.40;4.93;;;;;;;;;;5053703;28;20049;-64
2023/06/03 01:51:58;;;;;;;12.52;5.22;;;;;;;;;;5053632;28;20052;-64
2023/06/03 01:54:27;;;;;;;13.80;5.07;;;;;;;;;;5053677;28;20045;-64
2023/06/03 01:56:54;;;;;;;14.82;5.38;;;;;;;;;;5053463;28;20409;-64
2023/06/03 01:59:23;;;;;;;16.33;4.80;;;;;;;;;;5053467;28;20049;-64
2023/06/03 02:01:53;;;;;;;9.93;5.03;;;;;;;;;;5052974;28;20523;-64
2023/06/03 02:04:19;;;;;;;14.20;5.25;;;;;;;;;;5052993;28;20135;-64
2023/06/03 02:06:50;;;;;;;12.60;4.95;;;;;;;;;;5053311;28;20467;-64
2023/06/03 02:09:17;;;;;;;12.05;4.78;;;;;;;;;;5052202;28;20041;-64
2023/06/03 02:11:43;;;;;;;16.20;5.03;;;;;;;;;;5053413;28;20055;-64
2023/06/03 02:14:10;;;;;;;11.82;5.35;;;;;;;;;;5053213;28;20110;-64
2023/06/03 02:16:37;;;;;;;12.27;5.20;;;;;;;;;;5053054;28;20511;-64
2023/06/03 02:19:11;;;;;;;12.98;5.22;;;;;;;;;;5051832;28;20049;-64
2023/06/03 02:21:39;;;;;;;11.38;4.90;;;;;;;;;;5041083;28;20045;-64
2023/06/03 02:24:06;;;;;;;17.85;5.50;;;;;;;;;;5053019;28;20057;-64
2023/06/03 02:26:33;;;;;;;14.90;4.97;;;;;;;;;;5052843;28;20045;-65
2023/06/03 02:29:00;;;;;;;11.10;4.97;;;;;;;;;;5052648;28;20050;-64
2023/06/03 02:31:26;;;;;;;11.68;5.07;;;;;;;;;;5052646;28;20063;-64
2023/06/03 02:33:52;;;;;;;12.20;5.15;;;;;;;;;;5052599;28;20408;-64
2023/06/03 02:36:19;;;;;;;11.73;5.45;;;;;;;;;;5052437;28;20060;-65
2023/06/03 02:38:47;;;;;;;15.82;5.63;;;;;;;;;;5052675;28;20045;-64
2023/06/03 02:41:13;;;;;;;;;;;;;;;;;;5053024;28;20122;-64
2023/06/03 02:43:40;;;;;;;14.45;5.78;;;;;;;;;;5052241;28;20339;-65
2023/06/03 02:46:07;;;;;;;14.55;5.55;;;;;;;;;;5052270;28;20041;-64
2023/06/03 02:48:34;;;;;;;11.77;5.38;;;;;;;;;;5052138;28;20056;-64
2023/06/03 02:51:00;;;;;;;14.27;5.97;;;;;;;;;;5052230;28;20095;-65
2023/06/03 02:53:27;;;;;;;14.10;5.63;;;;;;;;;;5052397;28;20109;-64
2023/06/03 02:55:54;;;;;;;14.05;5.75;;;;;;;;;;5052276;28;20294;-64
2023/06/03 02:58:20;;;;;;;14.02;5.38;;;;;;;;;;5052342;28;20053;-65
2023/06/03 03:00:46;;;;;;;11.95;5.45;;;;;;;;;;5051941;28;20102;-65
2023/06/03 03:03:13;;;;;;;13.18;5.85;;;;;;;;;;5052076;28;20443;-65
2023/06/03 03:05:40;;;;;;;13.77;5.97;;;;;;;;;;5051893;28;20053;-64
2023/06/03 03:08:07;;;;;;;11.27;5.70;;;;;;;;;;5052116;28;20049;-64
2023/06/03 03:10:33;;;;;;;13.63;5.72;;;;;;;;;;5052055;28;20286;-65
2023/06/03 03:12:59;;;;;;;13.82;5.40;;;;;;;;;;5052052;28;20049;-64
2023/06/03 03:15:26;;;;;;;10.10;5.72;;;;;;;;;;5051880;28;20497;-65
2023/06/03 03:17:52;;;;;;;16.98;6.80;;;;;;;;;;5051690;28;20412;-65
2023/06/03 03:20:19;;;;;;;13.55;5.40;;;;;;;;;;5051521;28;20504;-64
2023/06/03 03:22:45;;;;;;;14.52;5.63;;;;;;;;;;5051860;28;20126;-64
2023/06/03 03:25:12;;;;;;;11.93;5.28;;;;;;;;;;5051623;28;20064;-64
2023/06/03 03:27:39;;;;;;;11.50;5.57;;;;;;;;;;5051407;28;20084;-64
2023/06/03 03:30:06;;;;;;;17.50;5.60;;;;;;;;;;5045343;28;20053;-64
2023/06/03 03:32:32;;;;;;;11.57;5.80;;;;;;;;;;5051361;28;20507;-64
2023/06/03 03:35:11;;;;;;;15.68;5.95;;;;;;;;;;5051475;28;20057;-64
2023/06/03 03:37:38;;;;;;;13.32;5.80;;;;;;;;;;5051567;28;20048;-64
2023/06/03 03:40:11;;;;;;;12.75;5.32;;;;;;;;;;5051538;28;20057;-65
2023/06/03 03:42:38;;;;;;;13.00;5.80;;;;;;;;;;5051754;28;20049;-64
2023/06/03 03:45:06;;;;;;;12.52;5.88;;;;;;;;;;5051603;28;20051;-64
2023/06/03 03:47:33;;;;;;;13.77;6.40;;;;;;;;;;5051456;28;20076;-64
2023/06/03 03:50:00;;;;;;;11.33;5.90;;;;;;;;;;5051808;28;20053;-65
2023/06/03 03:52:29;;;;;;;11.07;5.72;;;;;;;;;;5051588;28;20045;-64
2023/06/03 03:54:59;;;;;;;11.95;5.65;;;;;;;;;;5051747;28;20052;-64
2023/06/03 03:57:26;;;;;;;13.23;5.75;;;;;;;;;;5051516;28;20126;-64
2023/06/03 03:59:53;;;;;;;11.32;5.80;;;;;;;;;;5051384;28;20502;-64
2023/06/03 04:02:20;;;;;;;10.27;5.25;;;;;;;;;;5051515;28;20068;-64
2023/06/03 04:04:47;;;;;;;11.40;5.70;;;;;;;;;;5051175;28;20045;-64
2023/06/03 04:07:16;;;;;;;10.93;5.90;;;;;;;;;;5051300;28;20106;-64
2023/06/03 04:09:43;;;;;;;18.20;5.75;;;;;;;;;;5051372;28;20037;-64
2023/06/03 04:12:30;;;;;;;10.93;5.45;;;;;;;;;;5051157;28;20076;-64
2023/06/03 04:14:57;;;;;;;12.57;5.13;;;;;;;;;;5051100;28;20053;-64
2023/06/03 04:17:26;;;;;;;12.32;5.97;;;;;;;;;;5051182;28;20294;-64
2023/06/03 04:19:55;;;;;;;11.30;5.32;;;;;;;;;;5051307;28;20440;-64
2023/06/03 04:22:23;;;;;;;10.10;5.68;;;;;;;;;;5051177;28;20049;-64
2023/06/03 04:24:55;;;;;;;11.85;5.32;;;;;;;;;;5051188;28;20436;-64
2023/06/03 04:27:21;;;;;;;11.68;5.45;;;;;;;;;;5051281;28;20072;-64
2023/06/03 04:29:48;;;;;;;10.60;5.15;;;;;;;;;;5051215;28;20048;-64
2023/06/03 04:32:14;;;;;;;13.85;5.75;;;;;;;;;;5054013;28;20052;-64
2023/06/03 04:34:51;;;;;;;11.07;4.95;;;;;;;;;;5054813;28;20049;-64
2023/06/03 04:37:18;;;;;;;8.80;4.90;;;;;;;;;;5054738;28;20057;-64
2023/06/03 04:39:44;;;;;;;13.05;5.15;;;;;;;;;;5054782;28;20048;-64
2023/06/03 04:42:12;;;;;;;13.85;5.30;;;;;;;;;;5054653;28;20056;-64
2023/06/03 04:44:39;;;;;;;12.88;5.93;;;;;;;;;;5054655;28;20056;-64
2023/06/03 04:47:10;;;;;;;12.30;5.37;;;;;;;;;;5054814;28;20048;-64
2023/06/03 04:49:40;;;;;;;17.40;6.60;;;;;;;;;;5054926;28;20045;-64
2023/06/03 04:52:10;;;;;;;12.93;6.18;;;;;;;;;;5054448;28;20059;-64
2023/06/03 04:54:37;;;;;;;13.75;5.70;;;;;;;;;;5054804;28;20440;-64
2023/06/03 04:57:04;;;;;;;15.02;6.47;;;;;;;;;;5054638;28;20064;-64
2023/06/03 04:59:30;;;;;;;11.80;5.65;;;;;;;;;;5054500;28;20041;-64
2023/06/03 05:01:57;;;;;;;15.27;5.72;;;;;;;;;;5054180;28;20060;-64
2023/06/03 05:04:23;;;;;;;15.70;5.75;;;;;;;;;;5054220;28;20048;-64
2023/06/03 05:06:50;;;;;;;13.20;6.00;;;;;;;;;;5054356;28;20048;-64
2023/06/03 05:09:16;;;;;;;16.98;5.70;;;;;;;;;;5054104;28;20488;-64
2023/06/03 05:11:43;;;;;;;12.98;5.50;;;;;;;;;;5054243;28;20550;-64
2023/06/03 05:14:10;;;;;;;10.73;6.00;;;;;;;;;;5054073;28;20119;-65
2023/06/03 05:16:36;;;;;;;14.13;5.85;;;;;;;;;;5053915;28;20049;-64
2023/06/03 05:19:03;;;;;;;14.00;6.00;;;;;;;;;;5054142;28;20143;-64
2023/06/03 05:21:29;;;;;;;16.40;6.07;;;;;;;;;;5054330;28;20056;-64
2023/06/03 05:23:56;;;;;;;12.75;5.60;;;;;;;;;;5052673;28;20052;-64
2023/06/03 05:26:22;;;;;;;11.52;5.28;;;;;;;;;;5054015;28;20049;-64
2023/06/03 05:28:49;;;;;;;17.13;5.55;;;;;;;;;;5053806;28;20528;-64
2023/06/03 05:31:15;;;;;;;13.27;5.28;;;;;;;;;;5053756;28;20041;-64
2023/06/03 05:33:43;;;;;;;11.82;5.20;;;;;;;;;;5053683;28;20048;-64
2023/06/03 05:36:10;;;;;;;11.83;5.40;;;;;;;;;;5053975;28;20063;-64
2023/06/03 05:38:36;;;;;;;12.82;5.28;;;;;;;;;;5053882;28;20060;-64
2023/06/03 05:41:04;;;;;;;17.10;6.00;;;;;;;;;;5053556;28;20444;-64
2023/06/03 05:43:31;;;;;;;11.32;5.20;;;;;;;;;;5053681;28;20048;-64
2023/06/03 05:45:57;;;;;;;14.18;5.22;;;;;;;;;;5053669;28;20053;-64
2023/06/03 05:48:24;;;;;;;12.63;5.10;;;;;;;;;;5053638;28;20132;-64
2023/06/03 05:50:51;;;;;;;11.90;4.63;;;;;;;;;;5053616;28;20045;-64
2023/06/03 05:53:18;;;;;;;13.93;5.30;;;;;;;;;;5053441;28;20056;-65
2023/06/03 05:55:45;;;;;;;12.03;5.07;;;;;;;;;;5053247;28;20443;-64
2023/06/03 05:58:11;;;;;;;13.93;5.10;;;;;;;;;;5053568;28;20313;-64
2023/06/03 06:00:37;;;;;;;11.65;5.00;;;;;;;;;;5052971;28;20052;-64
2023/06/03 06:03:04;;;;;;;13.80;4.68;;;;;;;;;;5053564;28;20052;-64
2023/06/03 06:05:31;;;;;;;13.52;4.82;;;;;;;;;;5053041;28;20080;-64
2023/06/03 06:07:57;;;;;;;11.45;5.28;;;;;;;;;;5053210;28;20060;-64
2023/06/03 06:10:24;;;;;;;11.45;4.85;;;;;;;;;;5053482;28;20048;-64
2023/06/03 06:12:50;;;;;;;12.43;4.88;;;;;;;;;;5053395;28;20057;-64
2023/06/03 06:15:17;;;;;;;16.13;5.65;;;;;;;;;;5053224;28;20048;-64
2023/06/03 06:17:43;;;;;;;12.30;4.90;;;;;;;;;;5053031;28;20119;-64
2023/06/03 06:20:10;;;;;;;10.98;4.95;;;;;;;;;;5052985;28;20059;-64
2023/06/03 06:22:37;;;;;;;11.85;5.60;;;;;;;;;;5053054;28;20098;-64
2023/06/03 06:25:04;;;;;;;13.35;5.32;;;;;;;;;;5052762;28;20052;-64
2023/06/03 06:27:31;;;;;;;11.18;5.65;;;;;;;;;;5052627;28;20049;-64
2023/06/03 06:29:58;;;;;;;14.18;6.13;;;;;;;;;;5053003;28;20385;-64
2023/06/03 06:32:25;;;;;;;10.97;5.13;;;;;;;;;;5052833;28;20174;-64
2023/06/03 06:34:52;;;;;;;9.80;5.63;;;;;;;;;;5052486;28;20041;-64
2023/06/03 06:37:19;;;;;;;15.47;5.70;;;;;;;;;;5052816;28;20049;-64
2023/06/03 06:39:49;;;;;;;12.10;6.00;;;;;;;;;;5052566;28;20048;-64
2023/06/03 06:42:29;;;;;;;13.20;6.13;;;;;;;;;;5052259;28;20064;-64
2023/06/03 06:44:56;;;;;;;10.13;5.70;;;;;;;;;;5052653;28;20135;-64
2023/06/03 06:47:24;;;;;;;11.18;5.85;;;;;;;;;;5052463;28;20041;-64
2023/06/03 06:49:51;;;;;;;10.43;5.15;;;;;;;;;;5052298;28;20431;-64
2023/06/03 06:52:19;;;;;;;10.80;5.25;;;;;;;;;;5052256;28;20045;-64
2023/06/03 06:54:45;;;;;;;9.40;5.05;;;;;;;;;;5051700;28;20053;-64
2023/06/03 06:57:18;;;;;;;11.05;5.28;;;;;;;;;;5052327;28;20428;-64
2023/06/03 06:59:44;;;;;;;9.57;4.93;;;;;;;;;;5052014;28;20102;-64
2023/06/03 07:02:11;;;;;;;11.32;5.75;;;;;;;;;;5052219;28;20049;-64
2023/06/03 07:04:37;;;;;;;8.30;4.60;;;;;;;;;;5052281;28;20126;-64
2023/06/03 07:07:04;;;;;;;10.00;5.18;;;;;;;;;;5051741;28;20493;-64
2023/06/03 07:09:30;;;;;;;13.85;5.47;;;;;;;;;;5052338;28;20044;-65
2023/06/03 07:11:57;;;;;;;10.75;5.13;;;;;;;;;;5049406;28;20044;-64
2023/06/03 07:14:23;;;;;;;8.32;5.15;;;;;;;;;;5035298;28;20051;-63
2023/06/03 07:16:50;;;;;;;10.30;5.50;;;;;;;;;;5051263;28;20515;-63
2023/06/03 07:19:17;;;;;;;10.10;4.97;;;;;;;;;;5051172;28;20055;-65
2023/06/03 07:21:43;;;;;;;11.88;5.10;;;;;;;;;;5051217;28;20048;-66
2023/06/03 07:24:11;;;;;;;10.95;5.45;;;;;;;;;;5051488;28;20066;-63
2023/06/03 07:26:38;;;;;;;12.77;5.05;;;;;;;;;;5051412;28;20045;-63
2023/06/03 07:29:05;;;;;;;10.15;5.40;;;;;;;;;;5050943;28;20049;-67
2023/06/03 07:31:35;;;;;;;13.00;5.97;;;;;;;;;;5051051;28;20041;-66
2023/06/03 07:34:02;;;;;;;11.80;5.28;;;;;;;;;;5040589;28;20152;-64
2023/06/03 07:36:28;;;;;;;10.00;5.15;;;;;;;;;;5034127;28;20140;-64
2023/06/03 07:39:06;;;;;;;10.00;5.70;;;;;;;;;;5051535;28;20087;-67
2023/06/03 07:41:36;;;;;;;9.07;4.82;;;;;;;;;;5019225;28;20418;-63
2023/06/03 07:44:13;;;;;;;10.88;4.75;;;;;;;;;;5040229;28;20053;-67
2023/06/03 07:46:41;;;;;;;10.02;5.13;;;;;;;;;;5031273;28;20111;-67
2023/06/03 07:49:12;;;;;;;9.55;4.95;;;;;;;;;;5031364;28;20054;-63
2023/06/03 07:51:40;;;;;;;9.10;5.35;;;;;;;;;;5031255;28;20057;-63
2023/06/03 07:54:06;;;;;;;10.95;4.78;;;;;;;;;;5038526;28;20052;-61
2023/06/03 07:56:34;;;;;;;9.07;4.60;;;;;;;;;;5051102;28;20057;-61
2023/06/03 07:59:03;;;;;;;;;;;;;;;;;;5051300;28;20063;-62
2023/06/03 08:01:29;;;;;;;8.65;4.45;;;;;;;;;;5050578;28;19931;-61
2023/06/03 08:03:59;;;;;;;7.70;4.20;;;;;;;;;;5051155;28;20056;-61
2023/06/03 08:06:27;;;;;;;11.25;4.65;;;;;;;;;;5052094;28;20041;-61
2023/06/03 08:08:56;;;;;;;7.60;4.50;;;;;;;;;;5055281;28;20045;-61
2023/06/03 08:11:22;;;;;;;8.82;4.35;;;;;;;;;;5055058;28;20106;-62
2023/06/03 08:13:49;;;;;;;6.07;4.43;;;;;;;;;;5038103;28;20053;-63
2023/06/03 08:16:18;;;;;;;8.32;4.07;;;;;;;;;;5055051;28;20393;-62
2023/06/03 08:18:50;;;;;;;7.30;4.40;;;;;;;;;;5054791;28;20107;-65
2023/06/03 08:21:17;;;;;;;9.27;4.25;;;;;;;;;;5054864;28;20073;-64
2023/06/03 08:23:44;;;;;;;8.35;4.22;;;;;;;;;;5054644;28;20052;-63
2023/06/03 08:26:11;;;;;;;7.13;4.00;;;;;;;;;;5049029;28;20083;-62
2023/06/03 08:28:38;;;;;;;11.82;4.47;;;;;;;;;;5034761;28;20053;-62
2023/06/03 08:31:05;;;;;;;7.35;3.80;;;;;;;;;;5034584;28;20132;-61
2023/06/03 08:33:32;;;;;;;7.35;4.90;;;;;;;;;;5046810;28;20053;-61
2023/06/03 08:35:58;;;;;;;11.03;4.40;;;;;;;;;;5047825;28;20049;-63
2023/06/03 08:38:25;;;;;;;9.05;4.10;;;;;;;;;;5054214;28;20052;-61
2023/06/03 08:40:52;;;;;;;7.95;3.60;;;;;;;;;;5035872;28;20053;-63
2023/06/03 08:43:21;;;;;;;6.90;3.78;;;;;;;;;;5034606;28;20046;-63
2023/06/03 08:46:16;;;;;;;7.80;3.40;;;;;;;;;;5034288;28;20509;-63
2023/06/03 08:48:47;;;;;;;9.55;3.60;;;;;;;;;;5048931;28;20049;-61
2023/06/03 08:51:18;;;;;;;7.65;3.88;;;;;;;;;;5053897;28;20181;-61
2023/06/03 08:53:45;;;;;;;9.65;3.60;;;;;;;;;;5053969;28;20674;-61
2023/06/03 08:56:12;;;;;;;7.00;3.50;;;;;;;;;;5043107;28;20088;-61
2023/06/03 08:58:43;;;;;;;6.05;2.88;;;;;;;;;;5050587;28;20053;-61
2023/06/03 09:01:10;;;;;;;7.75;3.08;;;;;;;;;;5052762;28;20111;-61
2023/06/03 09:03:38;;;;;;;7.03;2.95;;;;;;;;;;5052375;28;20487;-61
2023/06/03 09:06:05;;;;;;;5.03;2.35;;;;;;;;;;5052469;28;20535;-61
2023/06/03 09:08:32;;;;;;;7.10;2.65;;;;;;;;;;5052719;28;20057;-61
2023/06/03 09:10:59;;;;;;;9.35;2.60;;;;;;;;;;5052774;28;20056;-61
2023/06/03 09:13:28;;;;;;;5.82;2.38;;;;;;;;;;5050805;28;20056;-61
2023/06/03 09:15:55;;;;;;;7.10;2.28;;;;;;;;;;5052723;28;20053;-61
2023/06/03 09:18:21;;;;;;;6.95;2.35;;;;;;;;;;5052160;28;20132;-61
2023/06/03 09:20:48;;;;;;;6.28;2.10;;;;;;;;;;5049727;28;20064;-62
2023/06/03 09:23:15;;;;;;;4.47;2.08;;;;;;;;;;5032383;28;20091;-62
2023/06/03 09:25:42;;;;;;;;;;;;;;;;;;5039774;28;20045;-62
2023/06/03 09:28:08;;;;;;;6.10;2.20;;;;;;;;;;5039989;28;19971;-63
2023/06/03 09:30:35;;;;;;;4.78;1.92;;;;;;;;;;5050625;28;20045;-64
2023/06/03 09:33:02;;;;;;;;;;;;;;;;;;5037662;28;20049;-63
2023/06/03 09:35:28;;;;;;;7.03;2.20;;;;;;;;;;5032067;28;19924;-62
2023/06/03 09:38:04;;;;;;;4.50;2.00;;;;;;;;;;5036166;28;20053;-63
2023/06/03 09:40:31;;;;;;;4.65;2.00;;;;;;;;;;5048121;28;20063;-63
2023/06/03 09:42:57;;;;;;;;;;;;;;;;;;5045332;28;20052;-63
2023/06/03 09:45:31;;;;;;;4.38;1.90;;;;;;;;;;5030742;28;19921;-63
2023/06/03 09:48:00;;;;;;;6.22;2.00;;;;;;;;;;5039230;28;20052;-61
2023/06/03 09:50:28;;;;;;;5.13;2.00;;;;;;;;;;5037585;28;20111;-64
2023/06/03 09:52:55;;;;;;;10.18;1.85;;;;;;;;;;5032928;28;20512;-61
2023/06/03 09:55:28;;;;;;;;;;;;;;;;;;5045410;28;20037;-62
2023/06/03 09:58:06;;;;;;;5.43;2.08;;;;;;;;;;5050766;28;20388;-62
2023/06/03 10:00:45;;;;;;;5.18;2.08;;;;;;;;;;5013172;28;1089931;-62
2023/06/03 10:03:11;;;;;;;4.63;2.10;;;;;;;;;;5052577;28;20404;-62
2023/06/03 10:05:38;;;;;;;6.38;2.28;;;;;;;;;;5052895;28;20049;-62
2023/06/03 10:08:05;;;;;;;7.05;2.20;;;;;;;;;;5053431;28;20049;-62
2023/06/03 10:10:33;;;;;;;4.50;1.80;;;;;;;;;;5053086;28;20045;-62
2023/06/03 10:13:21;;;;;;;4.05;1.90;;;;;;;;;;5053241;28;20449;-61
2023/06/03 10:15:48;;;;;;;5.72;1.88;;;;;;;;;;5053400;28;20048;-61
2023/06/03 10:18:15;;;;;;;6.18;1.80;;;;;;;;;;5053319;28;20451;-61
2023/06/03 10:20:41;;;;;;;;;;;;;;;;;;5053301;28;20052;-61
2023/06/03 10:23:08;;;;;;;;;;;;;;;;;;5053357;28;19928;-61
2023/06/03 10:25:34;;;;;;;;;;;;;;;;;;5053449;28;19928;-61
2023/06/03 10:28:01;;;;;;;4.93;2.08;;;;;;;;;;5052826;28;19925;-62
2023/06/03 10:30:29;;;;;;;3.38;1.45;;;;;;;;;;5052121;28;20056;-62
2023/06/03 10:33:02;;;;;;;4.22;1.95;;;;;;;;;;5052879;28;20049;-62
2023/06/03 10:35:33;;;;;;;4.78;1.80;;;;;;;;;;5052600;28;20049;-62
2023/06/03 10:38:00;;;;;;;5.53;1.48;;;;;;;;;;5052838;28;20057;-62
2023/06/03 10:40:27;;;;;;;4.90;1.80;;;;;;;;;;5052501;28;20052;-62
2023/06/03 10:42:54;;;;;;;5.03;1.65;;;;;;;;;;5052877;28;20057;-62
2023/06/03 10:45:21;;;;;;;5.53;1.52;;;;;;;;;;5052865;28;20045;-61
2023/06/03 10:47:49;;;;;;;4.00;1.65;;;;;;;;;;5052318;28;20045;-61
2023/06/03 10:50:31;;;;;;;4.43;1.50;;;;;;;;;;5052289;28;20055;-61
2023/06/03 10:53:03;;;;;;;5.25;1.73;;;;;;;;;;5052518;28;20056;-62
2023/06/03 10:55:30;;;;;;;5.32;1.88;;;;;;;;;;5052127;28;20080;-62
2023/06/03 10:58:02;;;;;;;6.95;1.80;;;;;;;;;;5052244;28;20098;-62
2023/06/03 11:00:47;;;;;;;4.38;1.67;;;;;;;;;;5052075;28;20065;-62
2023/06/03 11:03:16;;;;;;;4.47;1.60;;;;;;;;;;5051831;28;20488;-61
2023/06/03 11:05:44;;;;;;;3.53;1.55;;;;;;;;;;5052108;28;20472;-62
2023/06/03 11:08:11;;;;;;;9.43;2.65;;;;;;;;;;5052163;28;20056;-61
2023/06/03 11:10:39;;;;;;;5.07;1.70;;;;;;;;;;5051865;28;20052;-62
2023/06/03 11:13:06;;;;;;;3.78;1.50;;;;;;;;;;5051964;28;20048;-62
2023/06/03 11:16:02;;;;;;;4.57;1.35;;;;;;;;;;5052091;28;20045;-62
2023/06/03 11:18:29;;;;;;;3.03;1.40;;;;;;;;;;5051212;28;20061;-62
2023/06/03 11:20:56;;;;;;;3.58;1.10;;;;;;;;;;5051908;28;20052;-62
2023/06/03 11:23:45;;;;;;;4.53;1.63;;;;;;;;;;5051788;28;20059;-62
2023/06/03 11:26:34;;;;;;;4.75;1.38;;;;;;;;;;5051564;28;20447;-61
2023/06/03 11:29:02;;;;;;;3.47;1.30;;;;;;;;;;5051979;28;20411;-62
2023/06/03 11:31:29;;;;;;;3.90;1.38;;;;;;;;;;5051829;28;20052;-62
2023/06/03 11:34:15;;;;;;;3.78;1.60;;;;;;;;;;5051118;28;20095;-61
2023/06/03 11:36:45;;;;;;;3.67;1.80;;;;;;;;;;5051388;28;20053;-61
2023/06/03 11:39:11;;;;;;;5.10;1.80;;;;;;;;;;5051638;28;20542;-61
2023/06/03 11:41:56;;;;;;;5.18;1.73;;;;;;;;;;5050630;28;20124;-62
2023/06/03 11:44:23;;;;;;;6.22;1.85;;;;;;;;;;5051444;28;20535;-61
2023/06/03 11:46:55;;;;;;;3.60;1.35;;;;;;;;;;5027351;28;20053;-62
2023/06/03 11:49:23;;;;;;;3.80;1.80;;;;;;;;;;5044338;28;20049;-62
2023/06/03 11:51:51;;;;;;;5.13;1.42;;;;;;;;;;5047954;28;20053;-61
2023/06/03 11:54:20;;;;;;;2.97;1.63;;;;;;;;;;5026982;28;20432;-62
2023/06/03 11:56:47;;;;;;;5.93;2.08;;;;;;;;;;5046538;28;20045;-62
2023/06/03 11:59:15;;;;;;;5.53;1.30;;;;;;;;;;5049122;28;20048;-62
2023/06/03 12:01:55;;;;;;;4.03;1.70;;;;;;;;;;5049820;28;20099;-62
2023/06/03 12:04:21;;;;;;;4.03;1.75;;;;;;;;;;5038976;28;20057;-62
2023/06/03 12:06:48;;;;;;;4.97;1.70;;;;;;;;;;5030312;28;20493;-62
2023/06/03 12:09:18;;;;;;;4.28;1.60;;;;;;;;;;5029134;28;20049;-62
2023/06/03 12:11:45;;;;;;;5.00;2.17;;;;;;;;;;5031518;28;20057;-62
2023/06/03 12:14:27;;;;;;;3.90;1.60;;;;;;;;;;5031677;28;20053;-62
2023/06/03 12:16:55;;;;;;;3.30;1.60;;;;;;;;;;5031564;28;20053;-62
2023/06/03 12:19:21;;;;;;;3.30;1.70;;;;;;;;;;5031304;28;20080;-62
2023/06/03 12:21:55;;;;;;;4.05;1.85;;;;;;;;;;5036554;28;20099;-62
2023/06/03 12:24:26;;;;;;;3.67;1.60;;;;;;;;;;5035257;28;20057;-62
2023/06/03 12:26:54;;;;;;;3.70;1.90;;;;;;;;;;5051583;28;20045;-62
2023/06/03 12:29:21;;;;;;;3.40;1.70;;;;;;;;;;5040763;28;20401;-62
2023/06/03 12:31:57;;;;;;;3.08;1.50;;;;;;;;;;5047181;28;20052;-62
2023/06/03 12:34:36;;;;;;;3.90;1.77;;;;;;;;;;5051346;28;20053;-62
2023/06/03 12:37:03;;;;;;;4.75;1.63;;;;;;;;;;5051375;28;20045;-62
2023/06/03 12:39:49;;;;;;;4.35;2.00;;;;;;;;;;5051354;28;20056;-62
2023/06/03 12:42:17;;;;;;;2.60;1.50;;;;;;;;;;5051022;28;20049;-62
2023/06/03 12:44:44;;;;;;;4.65;1.65;;;;;;;;;;5050828;28;20053;-62
2023/06/03 12:47:12;;;;;;;3.47;1.70;;;;;;;;;;5050690;28;20128;-62
2023/06/03 12:49:39;;;;;;;4.03;1.75;;;;;;;;;;5051033;28;20497;-62
2023/06/03 12:52:15;;;;;;;3.28;1.50;;;;;;;;;;5048589;28;20041;-62
2023/06/03 12:54:50;;;;;;;3.50;1.70;;;;;;;;;;5034281;28;20501;-62
2023/06/03 12:57:17;;;;;;;2.97;1.40;;;;;;;;;;5034269;28;20049;-62
2023/06/03 13:00:00;;;;;;;2.63;1.52;;;;;;;;;;5041210;28;20054;-62
2023/06/03 13:02:27;;;;;;;3.92;1.70;;;;;;;;;;5054397;28;20052;-62
2023/06/03 13:04:54;;;;;;;3.42;1.50;;;;;;;;;;5054376;28;20094;-62
2023/06/03 13:07:20;;;;;;;3.03;1.40;;;;;;;;;;5050115;28;20046;-62
2023/06/03 13:09:47;;;;;;;3.15;1.48;;;;;;;;;;5039189;28;20091;-62
2023/06/03 13:12:13;;;;;;;4.22;1.88;;;;;;;;;;5033088;28;20521;-62
2023/06/03 13:14:40;;;;;;;5.30;1.65;;;;;;;;;;5032936;28;20069;-62
2023/06/03 13:17:07;;;;;;;3.60;1.67;;;;;;;;;;5032994;28;20500;-62
2023/06/03 13:19:35;;;;;;;4.40;1.80;;;;;;;;;;5032863;28;20077;-62
2023/06/03 13:22:01;;;;;;;4.75;1.75;;;;;;;;;;5032875;28;20129;-62
2023/06/03 13:24:28;;;;;;;4.10;1.88;;;;;;;;;;5038448;28;20477;-62
2023/06/03 13:26:54;;;;;;;3.80;1.80;;;;;;;;;;5053793;28;20049;-62
2023/06/03 13:29:21;;;;;;;3.60;1.85;;;;;;;;;;5050146;28;20060;-62
2023/06/03 13:31:47;;;;;;;4.43;1.67;;;;;;;;;;5036540;28;20436;-62
2023/06/03 13:34:14;;;;;;;3.13;1.58;;;;;;;;;;5046496;28;20416;-62
2023/06/03 13:36:41;;;;;;;3.75;1.52;;;;;;;;;;5053955;28;20451;-61
2023/06/03 13:39:07;;;;;;;4.18;1.65;;;;;;;;;;5033820;28;20064;-61
2023/06/03 13:41:34;;;;;;;4.70;1.70;;;;;;;;;;5032977;28;20049;-61
2023/06/03 13:44:01;;;;;;;4.93;1.70;;;;;;;;;;5046204;28;20053;-62
2023/06/03 13:46:27;;;;;;;5.07;1.73;;;;;;;;;;5038562;28;20064;-62
2023/06/03 13:48:53;;;;;;;4.95;1.73;;;;;;;;;;5032630;28;20519;-61
2023/06/03 13:51:20;;;;;;;3.92;1.75;;;;;;;;;;5033429;28;20481;-61
2023/06/03 13:53:47;;;;;;;4.30;1.92;;;;;;;;;;5032666;28;20042;-61
2023/06/03 13:56:13;;;;;;;6.95;1.90;;;;;;;;;;5035700;28;20057;-62
2023/06/03 13:58:40;;;;;;;4.03;1.90;;;;;;;;;;5053421;28;20053;-62
2023/06/03 14:01:06;;;;;;;3.60;1.63;;;;;;;;;;5041897;28;20072;-62
2023/06/03 14:03:33;;;;;;;3.67;1.88;;;;;;;;;;5032180;28;20602;-62
2023/06/03 14:05:59;;;;;;;3.40;1.50;;;;;;;;;;5032891;28;20489;-62
2023/06/03 14:08:26;;;;;;;2.75;1.25;;;;;;;;;;5033093;28;20053;-62
2023/06/03 14:10:52;;;;;;;3.45;1.63;;;;;;;;;;5033319;28;20057;-62
2023/06/03 14:13:19;;;;;;;4.03;1.63;;;;;;;;;;5033317;28;20049;-62
2023/06/03 14:15:46;;;;;;;3.72;1.58;;;;;;;;;;5033287;28;20080;-62
2023/06/03 14:18:12;;;;;;;5.63;1.65;;;;;;;;;;5033003;28;20059;-62
2023/06/03 14:20:39;;;;;;;3.75;1.77;;;;;;;;;;5033233;28;20053;-62
2023/06/03 14:23:05;;;;;;;3.70;1.70;;;;;;;;;;5038208;28;20052;-62
2023/06/03 14:25:33;;;;;;;2.55;1.40;;;;;;;;;;5053148;28;20402;-62
2023/06/03 14:28:02;;;;;;;4.18;1.48;;;;;;;;;;5052833;28;20045;-62
2023/06/03 14:30:29;;;;;;;3.00;1.48;;;;;;;;;;5053127;28;20041;-62
2023/06/03 14:33:16;;;;;;;3.60;1.50;;;;;;;;;;5052866;28;20084;-62
2023/06/03 14:35:42;;;;;;;5.65;2.30;;;;;;;;;;5052916;28;20053;-62
2023/06/03 14:38:09;;;;;;;3.75;1.98;;;;;;;;;;5052530;28;20057;-64
2023/06/03 14:40:35;;;;;;;4.03;2.13;;;;;;;;;;5052655;28;20381;-61
2023/06/03 14:43:02;;;;;;;2.78;1.40;;;;;;;;;;5052594;28;20056;-62
2023/06/03 14:45:28;;;;;;;2.75;2.00;;;;;;;;;;5049368;28;20057;-62